createdAt,value
2023-04-08T00:01:29.756Z,6.20
2023-04-08T00:03:32.559Z,6.20
2023-04-08T00:05:34.670Z,6.20
2023-04-08T00:07:37.327Z,6.20
2023-04-08T00:09:39.044Z,6.20
2023-04-08T00:11:41.746Z,6.20
2023-04-08T00:13:43.552Z,6.10
2023-04-08T00:15:45.637Z,6.10
2023-04-08T00:17:47.500Z,6.10
2023-04-08T00:19:49.531Z,6.10
2023-04-08T00:21:51.193Z,6.10
2023-04-08T00:23:53.111Z,6.10
2023-04-08T00:25:54.729Z,6.10
2023-04-08T00:27:56.392Z,6.10
2023-04-08T00:30:00.010Z,6.00
2023-04-08T00:32:01.664Z,6.00
2023-04-08T00:34:03.673Z,6.00
2023-04-08T00:36:05.575Z,6.00
2023-04-08T00:38:08.094Z,6.00
2023-04-08T00:40:10.150Z,6.00
2023-04-08T00:42:11.871Z,6.00
2023-04-08T00:44:13.571Z,6.00
2023-04-08T00:46:15.472Z,6.00
2023-04-08T00:48:17.254Z,6.00
2023-04-08T00:50:20.276Z,6.00
2023-04-08T00:52:22.055Z,5.90
2023-04-08T00:54:23.716Z,5.90
2023-04-08T00:56:26.143Z,5.90
2023-04-08T00:58:29.705Z,6.00
2023-04-08T01:00:31.856Z,5.90
2023-04-08T01:03:00.371Z,7.70
2023-04-08T01:05:41.552Z,5.90
2023-04-08T01:07:48.375Z,5.90
2023-04-08T01:09:57.800Z,5.90
2023-04-08T01:12:05.761Z,5.90
2023-04-08T01:14:10.215Z,5.80
2023-04-08T01:16:15.814Z,5.80
2023-04-08T01:18:18.605Z,5.90
2023-04-08T01:20:21.374Z,5.90
2023-04-08T01:22:43.813Z,5.90
2023-04-08T01:24:47.153Z,5.90
2023-04-08T01:26:50.095Z,5.80
2023-04-08T01:28:55.476Z,5.80
2023-04-08T01:30:59.522Z,5.90
2023-04-08T01:33:02.516Z,5.80
2023-04-08T01:35:05.354Z,5.90
2023-04-08T01:37:08.148Z,5.80
2023-04-08T01:39:11.318Z,5.80
2023-04-08T01:41:13.426Z,5.80
2023-04-08T01:43:17.707Z,5.80
2023-04-08T01:45:20.754Z,5.80
2023-04-08T01:47:23.710Z,5.70
2023-04-08T01:49:26.831Z,5.70
2023-04-08T01:51:31.818Z,5.80
2023-04-08T01:53:33.953Z,5.80
2023-04-08T01:55:37.325Z,5.80
2023-04-08T01:57:41.077Z,5.70
2023-04-08T01:59:43.418Z,5.80
2023-04-08T02:01:46.684Z,5.70
2023-04-08T02:03:52.116Z,5.70
2023-04-08T02:05:53.975Z,5.70
2023-04-08T02:07:55.821Z,5.70
2023-04-08T02:09:57.479Z,5.70
2023-04-08T02:11:59.233Z,5.70
2023-04-08T02:14:01.012Z,5.70
2023-04-08T02:16:31.725Z,5.70
2023-04-08T02:18:35.885Z,5.70
2023-04-08T02:20:40.881Z,5.80
2023-04-08T02:23:04.727Z,5.80
2023-04-08T02:25:13.204Z,5.80
2023-04-08T02:27:16.255Z,5.80
2023-04-08T02:29:19.071Z,5.80
2023-04-08T02:31:21.375Z,5.80
2023-04-08T02:33:24.079Z,5.80
2023-04-08T02:35:26.555Z,5.80
2023-04-08T02:37:34.636Z,5.80
2023-04-08T02:39:36.334Z,5.80
2023-04-08T02:41:37.989Z,5.80
2023-04-08T02:43:39.645Z,5.80
2023-04-08T02:45:43.146Z,5.80
2023-04-08T02:47:44.899Z,5.80
2023-04-08T02:49:46.741Z,5.70
2023-04-08T02:51:48.423Z,5.70
2023-04-08T02:53:50.245Z,5.70
2023-04-08T02:55:52.158Z,5.70
2023-04-08T02:57:53.841Z,5.70
2023-04-08T02:59:55.456Z,5.70
2023-04-08T03:01:57.104Z,5.70
2023-04-08T03:03:58.877Z,5.70
2023-04-08T03:06:00.801Z,5.70
2023-04-08T03:08:02.654Z,5.70
2023-04-08T03:10:05.522Z,5.70
2023-04-08T03:12:07.200Z,5.70
2023-04-08T03:14:08.870Z,5.60
2023-04-08T03:16:10.589Z,5.60
2023-04-08T03:18:12.319Z,5.60
2023-04-08T03:20:13.956Z,5.60
2023-04-08T03:22:16.170Z,5.60
2023-04-08T03:24:17.932Z,5.60
2023-04-08T03:26:19.590Z,5.60
2023-04-08T03:28:21.323Z,5.60
2023-04-08T03:30:23.304Z,5.60
2023-04-08T03:32:25.267Z,5.60
2023-04-08T03:34:26.967Z,5.60
2023-04-08T03:36:28.720Z,5.70
2023-04-08T03:38:30.384Z,5.70
2023-04-08T03:40:32.003Z,5.60
2023-04-08T03:42:35.018Z,5.60
2023-04-08T03:44:36.765Z,5.60
2023-04-08T03:46:38.490Z,5.60
2023-04-08T03:48:40.254Z,5.60
2023-04-08T03:50:41.907Z,5.60
2023-04-08T03:52:43.548Z,5.60
2023-04-08T03:54:45.167Z,5.50
2023-04-08T03:56:46.853Z,5.50
2023-04-08T03:58:48.708Z,5.50
2023-04-08T04:00:50.591Z,5.40
2023-04-08T04:02:52.548Z,5.40
2023-04-08T04:04:54.437Z,5.30
2023-04-08T04:06:56.192Z,5.30
2023-04-08T04:08:57.862Z,5.30
2023-04-08T04:11:00.206Z,5.30
2023-04-08T04:13:01.944Z,5.20
2023-04-08T04:15:04.169Z,5.20
2023-04-08T04:17:05.926Z,5.20
2023-04-08T04:19:07.576Z,5.20
2023-04-08T04:21:09.311Z,5.20
2023-04-08T04:23:11.156Z,5.20
2023-04-08T04:25:12.787Z,5.20
2023-04-08T04:27:15.012Z,5.20
2023-04-08T04:29:16.708Z,5.10
2023-04-08T04:31:21.417Z,5.10
2023-04-08T04:33:23.499Z,5.10
2023-04-08T04:35:25.280Z,5.00
2023-04-08T04:37:27.491Z,5.00
2023-04-08T04:39:29.170Z,5.00
2023-04-08T04:41:30.895Z,5.00
2023-04-08T04:43:32.555Z,5.00
2023-04-08T04:45:34.196Z,5.00
2023-04-08T04:47:36.042Z,5.00
2023-04-08T04:49:37.772Z,5.00
2023-04-08T04:51:39.432Z,5.10
2023-04-08T04:53:41.242Z,5.10
2023-04-08T04:55:42.882Z,5.10
2023-04-08T04:57:44.778Z,5.10
2023-04-08T04:59:46.472Z,5.10
2023-04-08T05:01:48.311Z,5.10
2023-04-08T05:03:50.100Z,5.10
2023-04-08T05:05:55.360Z,5.10
2023-04-08T05:07:57.456Z,5.20
2023-04-08T05:09:59.118Z,5.20
2023-04-08T05:12:00.879Z,5.20
2023-04-08T05:14:02.547Z,5.30
2023-04-08T05:16:04.384Z,5.30
2023-04-08T05:18:06.276Z,5.30
2023-04-08T05:20:08.468Z,5.30
2023-04-08T05:22:10.130Z,5.30
2023-04-08T05:24:11.797Z,5.30
2023-04-08T05:26:15.238Z,5.30
2023-04-08T05:28:17.899Z,5.30
2023-04-08T05:30:19.697Z,5.30
2023-04-08T05:32:21.435Z,5.30
2023-04-08T05:34:23.441Z,5.30
2023-04-08T05:36:26.419Z,5.30
2023-04-08T05:38:28.164Z,5.30
2023-04-08T05:40:29.879Z,5.20
2023-04-08T05:42:32.490Z,5.30
2023-04-08T05:44:34.144Z,5.40
2023-04-08T05:46:36.054Z,5.40
2023-04-08T05:48:37.795Z,5.40
2023-04-08T05:50:39.431Z,5.40
2023-04-08T05:52:47.091Z,5.50
2023-04-08T05:54:48.810Z,5.50
2023-04-08T05:56:50.543Z,5.60
2023-04-08T05:58:52.301Z,5.60
2023-04-08T06:00:55.614Z,5.70
2023-04-08T06:02:57.693Z,5.70
2023-04-08T06:04:59.631Z,5.60
2023-04-08T06:07:02.954Z,5.70
2023-04-08T06:09:04.687Z,5.80
2023-04-08T06:11:06.319Z,5.80
2023-04-08T06:13:08.085Z,5.80
2023-04-08T06:15:10.302Z,5.80
2023-04-08T06:17:11.944Z,5.80
2023-04-08T06:19:13.548Z,5.80
2023-04-08T06:21:15.285Z,5.90
2023-04-08T06:23:16.934Z,5.80
2023-04-08T06:25:18.631Z,5.90
2023-04-08T06:27:21.048Z,5.90
2023-04-08T06:29:23.683Z,5.90
2023-04-08T06:31:25.484Z,5.90
2023-04-08T06:33:27.200Z,5.90
2023-04-08T06:35:28.948Z,5.90
2023-04-08T06:37:31.248Z,6.00
2023-04-08T06:39:33.296Z,6.00
2023-04-08T06:41:34.946Z,6.00
2023-04-08T06:43:38.017Z,6.10
2023-04-08T06:45:39.905Z,6.10
2023-04-08T06:47:41.565Z,6.10
2023-04-08T06:49:43.217Z,6.10
2023-04-08T06:51:44.885Z,6.20
2023-04-08T06:53:46.648Z,6.20
2023-04-08T06:55:48.397Z,6.30
2023-04-08T06:57:50.058Z,6.30
2023-04-08T06:59:53.473Z,6.30
2023-04-08T07:01:55.249Z,6.30
2023-04-08T07:03:57.655Z,6.50
2023-04-08T07:05:59.516Z,6.50
2023-04-08T07:08:01.225Z,6.50
2023-04-08T07:10:02.892Z,6.70
2023-04-08T07:12:04.927Z,6.80
2023-04-08T07:14:06.540Z,6.90
2023-04-08T07:16:08.317Z,6.90
2023-04-08T07:18:10.639Z,6.90
2023-04-08T07:20:13.687Z,7.00
2023-04-08T07:22:16.164Z,7.20
2023-04-08T07:24:18.810Z,7.20
2023-04-08T07:26:20.453Z,7.30
2023-04-08T07:28:22.353Z,7.50
2023-04-08T07:30:24.030Z,7.40
2023-04-08T07:32:25.956Z,7.40
2023-04-08T07:34:27.713Z,7.40
2023-04-08T07:36:29.439Z,7.50
2023-04-08T07:38:31.631Z,7.50
2023-04-08T07:40:33.241Z,7.30
2023-04-08T07:42:34.917Z,7.40
2023-04-08T07:44:36.548Z,7.40
2023-04-08T07:46:38.878Z,7.40
2023-04-08T07:48:40.850Z,7.30
2023-04-08T07:51:08.866Z,7.20
2023-04-08T07:53:04.439Z,7.50
2023-04-08T07:55:06.566Z,7.60
2023-04-08T07:57:09.519Z,7.70
2023-04-08T07:59:12.053Z,7.80
2023-04-08T08:01:21.587Z,7.80
2023-04-08T08:03:23.509Z,7.70
2023-04-08T08:05:25.326Z,7.70
2023-04-08T08:07:27.002Z,7.70
2023-04-08T08:09:30.121Z,7.40
2023-04-08T08:11:33.015Z,7.30
2023-04-08T08:13:34.975Z,7.40
2023-04-08T08:15:36.615Z,7.50
2023-04-08T08:17:38.398Z,7.70
2023-04-08T08:19:40.144Z,7.90
2023-04-08T08:21:41.860Z,8.30
2023-04-08T08:23:43.535Z,8.60
2023-04-08T08:25:45.450Z,9.00
2023-04-08T08:27:47.630Z,9.40
2023-04-08T08:29:49.313Z,9.70
2023-04-08T08:31:50.980Z,9.90
2023-04-08T08:33:52.893Z,9.70
2023-04-08T08:35:55.897Z,10.00
2023-04-08T08:37:57.575Z,10.30
2023-04-08T08:39:59.314Z,10.50
2023-04-08T08:42:01.312Z,10.30
2023-04-08T08:44:06.311Z,10.20
2023-04-08T08:46:11.471Z,10.60
2023-04-08T08:48:13.278Z,10.80
2023-04-08T08:50:15.671Z,11.20
2023-04-08T08:52:20.592Z,11.40
2023-04-08T08:54:22.335Z,11.90
2023-04-08T08:56:24.020Z,12.50
2023-04-08T08:58:29.012Z,12.80
2023-04-08T09:00:38.668Z,13.10
2023-04-08T09:02:41.326Z,13.40
2023-04-08T09:04:57.558Z,13.40
2023-04-08T09:07:10.717Z,13.50
2023-04-08T09:09:12.560Z,13.10
2023-04-08T09:11:19.179Z,13.10
2023-04-08T09:13:23.583Z,13.10
2023-04-08T09:15:25.271Z,13.00
2023-04-08T09:17:38.176Z,13.80
2023-04-08T09:19:40.078Z,13.60
2023-04-08T09:21:42.200Z,13.40
2023-04-08T09:23:48.728Z,13.50
2023-04-08T09:25:50.540Z,13.60
2023-04-08T09:27:53.561Z,13.50
2023-04-08T09:30:13.668Z,13.20
2023-04-08T09:32:15.333Z,12.90
2023-04-08T09:34:19.565Z,12.50
2023-04-08T09:36:21.380Z,12.30
2023-04-08T09:38:23.072Z,12.60
2023-04-08T09:40:27.337Z,12.80
2023-04-08T09:42:29.206Z,12.90
2023-04-08T09:44:33.194Z,13.20
2023-04-08T09:46:49.812Z,13.70
2023-04-08T09:49:12.571Z,13.40
2023-04-08T09:51:16.996Z,12.90
2023-04-08T09:53:34.911Z,12.20
2023-04-08T09:55:37.644Z,12.00
2023-04-08T09:58:02.072Z,12.00
2023-04-08T10:00:17.883Z,12.30
2023-04-08T10:02:30.432Z,12.10
2023-04-08T10:04:35.878Z,12.00
2023-04-08T10:06:39.330Z,11.70
2023-04-08T10:08:41.555Z,11.60
2023-04-08T10:10:44.544Z,11.50
2023-04-08T10:12:48.407Z,11.40
2023-04-08T10:15:24.917Z,11.20
2023-04-08T10:17:28.367Z,10.70
2023-04-08T10:19:41.417Z,10.30
2023-04-08T10:21:47.989Z,10.00
2023-04-08T10:23:59.705Z,9.80
2023-04-08T10:26:01.977Z,9.70
2023-04-08T10:28:15.720Z,9.80
2023-04-08T10:30:31.168Z,9.50
2023-04-08T10:32:41.868Z,9.50
2023-04-08T10:34:52.802Z,9.50
2023-04-08T10:36:56.704Z,11.60
2023-04-08T10:38:58.390Z,9.40
2023-04-08T10:41:00.072Z,9.40
2023-04-08T10:43:01.897Z,9.60
2023-04-08T10:45:03.892Z,9.50
2023-04-08T10:47:05.674Z,9.70
2023-04-08T10:49:08.773Z,10.00
2023-04-08T10:51:10.591Z,10.30
2023-04-08T10:53:12.471Z,10.40
2023-04-08T10:55:14.491Z,10.40
2023-04-08T10:57:23.319Z,10.40
2023-04-08T10:59:32.009Z,10.30
2023-04-08T11:01:41.355Z,10.40
2023-04-08T11:03:43.863Z,10.30
2023-04-08T11:05:45.559Z,10.30
2023-04-08T11:07:47.236Z,10.40
2023-04-08T11:09:49.879Z,10.70
2023-04-08T11:11:53.553Z,10.80
2023-04-08T11:13:57.336Z,10.70
2023-04-08T11:16:00.614Z,10.90
2023-04-08T11:18:06.498Z,11.00
2023-04-08T11:20:09.207Z,11.10
2023-04-08T11:22:13.237Z,11.20
2023-04-08T11:24:16.440Z,11.30
2023-04-08T11:26:19.410Z,11.20
2023-04-08T11:28:22.125Z,10.80
2023-04-08T11:30:24.315Z,10.60
2023-04-08T11:32:26.248Z,10.60
2023-04-08T11:34:28.180Z,10.50
2023-04-08T11:36:30.386Z,10.50
2023-04-08T11:38:32.138Z,10.30
2023-04-08T11:40:33.784Z,10.20
2023-04-08T11:42:35.712Z,10.00
2023-04-08T11:44:37.391Z,9.90
2023-04-08T11:46:40.886Z,10.00
2023-04-08T11:48:56.596Z,10.00
2023-04-08T11:51:05.790Z,10.00
2023-04-08T11:53:21.490Z,9.90
2023-04-08T11:55:28.178Z,9.80
2023-04-08T11:57:30.265Z,9.90
2023-04-08T11:59:31.901Z,9.80
2023-04-08T12:01:33.618Z,9.90
2023-04-08T12:03:35.446Z,10.00
2023-04-08T12:05:37.360Z,10.00
2023-04-08T12:07:39.089Z,9.90
2023-04-08T12:09:40.777Z,10.10
2023-04-08T12:11:42.561Z,10.20
2023-04-08T12:13:44.230Z,10.30
2023-04-08T12:15:45.954Z,10.40
2023-04-08T12:17:47.675Z,10.50
2023-04-08T12:19:49.425Z,10.50
2023-04-08T12:21:51.196Z,10.60
2023-04-08T12:23:53.553Z,10.60
2023-04-08T12:25:55.341Z,10.60
2023-04-08T12:27:57.072Z,10.70
2023-04-08T12:29:59.155Z,10.70
2023-04-08T12:32:02.426Z,10.80
2023-04-08T12:34:04.253Z,10.90
2023-04-08T12:36:06.040Z,10.80
2023-04-08T12:38:07.804Z,10.90
2023-04-08T12:40:09.595Z,10.90
2023-04-08T12:42:11.566Z,10.90
2023-04-08T12:44:13.392Z,10.70
2023-04-08T12:46:15.230Z,10.70
2023-04-08T12:48:17.198Z,10.50
2023-04-08T12:50:18.990Z,10.40
2023-04-08T12:52:20.799Z,10.20
2023-04-08T12:54:22.728Z,10.10
2023-04-08T12:56:24.418Z,10.00
2023-04-08T12:58:26.262Z,9.90
2023-04-08T13:00:27.956Z,9.80
2023-04-08T13:02:29.753Z,9.80
2023-04-08T13:04:31.573Z,9.90
2023-04-08T13:06:33.322Z,9.90
2023-04-08T13:08:34.998Z,10.10
2023-04-08T13:10:36.697Z,10.00
2023-04-08T13:12:40.080Z,10.10
2023-04-08T13:14:41.810Z,10.10
2023-04-08T13:16:43.865Z,10.10
2023-04-08T13:18:45.658Z,10.00
2023-04-08T13:20:47.532Z,9.90
2023-04-08T13:22:49.234Z,10.00
2023-04-08T13:24:51.330Z,10.20
2023-04-08T13:26:52.983Z,10.30
2023-04-08T13:28:57.697Z,10.30
2023-04-08T13:30:59.918Z,10.40
2023-04-08T13:33:01.743Z,10.50
2023-04-08T13:35:04.700Z,10.80
2023-04-08T13:37:06.438Z,10.80
2023-04-08T13:39:08.156Z,10.80
2023-04-08T13:41:09.750Z,10.80
2023-04-08T13:43:11.457Z,10.80
2023-04-08T13:45:13.211Z,10.70
2023-04-08T13:47:14.878Z,10.70
2023-04-08T13:49:16.506Z,10.70
2023-04-08T13:51:18.197Z,10.70
2023-04-08T13:53:19.858Z,10.80
2023-04-08T13:55:22.234Z,10.80
2023-04-08T13:57:23.869Z,10.80
2023-04-08T13:59:25.542Z,10.70
2023-04-08T14:01:27.273Z,10.80
2023-04-08T14:03:28.972Z,10.70
2023-04-08T14:05:31.123Z,10.50
2023-04-08T14:07:32.841Z,10.50
2023-04-08T14:09:35.798Z,10.30
2023-04-08T14:11:38.696Z,10.30
2023-04-08T14:13:40.452Z,10.20
2023-04-08T14:15:42.209Z,10.10
2023-04-08T14:17:43.857Z,10.10
2023-04-08T14:19:45.936Z,10.20
2023-04-08T14:21:47.665Z,10.40
2023-04-08T14:23:49.315Z,10.30
2023-04-08T14:25:51.042Z,10.40
2023-04-08T14:27:58.512Z,10.60
2023-04-08T14:30:00.672Z,10.70
2023-04-08T14:32:02.389Z,10.90
2023-04-08T14:34:04.299Z,12.40
2023-04-08T14:36:06.609Z,11.50
2023-04-08T14:38:08.437Z,11.50
2023-04-08T14:40:10.565Z,11.70
2023-04-08T14:42:12.305Z,11.60
2023-04-08T14:44:13.953Z,11.60
2023-04-08T14:46:16.632Z,11.80
2023-04-08T14:48:19.132Z,11.80
2023-04-08T14:50:21.110Z,11.80
2023-04-08T14:52:23.288Z,11.80
2023-04-08T14:54:25.015Z,11.90
2023-04-08T14:56:26.710Z,11.90
2023-04-08T14:58:28.365Z,11.80
2023-04-08T15:00:30.057Z,11.50
2023-04-08T15:02:31.912Z,11.30
2023-04-08T15:04:33.755Z,11.20
2023-04-08T15:06:35.801Z,10.90
2023-04-08T15:08:37.473Z,10.70
2023-04-08T15:10:39.170Z,10.50
2023-04-08T15:12:40.987Z,10.40
2023-04-08T15:14:42.735Z,10.40
2023-04-08T15:16:44.441Z,10.40
2023-04-08T15:18:46.103Z,10.40
2023-04-08T15:20:47.718Z,10.40
2023-04-08T15:22:49.411Z,10.20
2023-04-08T15:24:51.257Z,10.20
2023-04-08T15:26:53.172Z,10.10
2023-04-08T15:28:57.007Z,10.10
2023-04-08T15:30:58.709Z,10.10
2023-04-08T15:33:00.358Z,10.10
2023-04-08T15:35:02.134Z,10.10
2023-04-08T15:37:03.818Z,10.00
2023-04-08T15:39:06.040Z,9.90
2023-04-08T15:41:14.984Z,9.90
2023-04-08T15:43:16.710Z,9.80
2023-04-08T15:45:18.507Z,9.60
2023-04-08T15:47:20.178Z,9.50
2023-04-08T15:49:21.908Z,9.40
2023-04-08T15:51:23.565Z,9.30
2023-04-08T15:53:25.496Z,9.20
2023-04-08T15:55:27.169Z,9.10
2023-04-08T15:57:29.024Z,9.00
2023-04-08T15:59:31.247Z,8.90
2023-04-08T16:01:33.238Z,8.90
2023-04-08T16:03:35.294Z,8.80
2023-04-08T16:05:39.666Z,8.70
2023-04-08T16:07:42.315Z,8.70
2023-04-08T16:09:43.960Z,8.70
2023-04-08T16:11:45.646Z,8.60
2023-04-08T16:13:47.585Z,8.50
2023-04-08T16:15:49.312Z,8.40
2023-04-08T16:17:52.707Z,8.40
2023-04-08T16:19:54.514Z,8.30
2023-04-08T16:21:56.551Z,8.30
2023-04-08T16:23:58.160Z,8.30
2023-04-08T16:26:00.231Z,8.30
2023-04-08T16:28:02.039Z,8.20
2023-04-08T16:30:04.329Z,8.20
2023-04-08T16:32:06.514Z,8.30
2023-04-08T16:34:08.275Z,8.30
2023-04-08T16:36:10.050Z,8.30
2023-04-08T16:38:11.867Z,8.30
2023-04-08T16:40:13.556Z,8.30
2023-04-08T16:42:16.484Z,8.40
2023-04-08T16:44:18.167Z,8.30
2023-04-08T16:46:19.870Z,8.30
2023-04-08T16:48:23.035Z,8.40
2023-04-08T16:50:25.022Z,8.40
2023-04-08T16:52:26.728Z,8.40
2023-04-08T16:54:28.724Z,8.30
2023-04-08T16:56:30.364Z,8.30
2023-04-08T16:58:32.062Z,8.30
2023-04-08T17:00:33.768Z,8.30
2023-04-08T17:02:35.633Z,8.30
2023-04-08T17:04:37.424Z,8.30
2023-04-08T17:06:40.841Z,8.30
2023-04-08T17:08:46.122Z,8.20
2023-04-08T17:10:49.640Z,8.20
2023-04-08T17:12:51.465Z,8.10
2023-04-08T17:14:53.108Z,8.10
2023-04-08T17:16:55.712Z,8.00
2023-04-08T17:18:58.020Z,8.00
2023-04-08T17:20:59.764Z,7.80
2023-04-08T17:23:01.501Z,7.80
2023-04-08T17:25:03.324Z,7.80
2023-04-08T17:27:05.487Z,7.80
2023-04-08T17:29:07.212Z,7.70
2023-04-08T17:31:09.753Z,7.70
2023-04-08T17:33:11.439Z,7.60
2023-04-08T17:35:13.278Z,7.60
2023-04-08T17:37:14.934Z,7.50
2023-04-08T17:39:16.821Z,7.50
2023-04-08T17:41:29.795Z,7.40
2023-04-08T17:43:37.079Z,7.40
2023-04-08T17:45:39.261Z,7.30
2023-04-08T17:47:43.373Z,7.30
2023-04-08T17:49:45.026Z,7.20
2023-04-08T17:51:46.668Z,7.20
2023-04-08T17:53:48.457Z,7.10
2023-04-08T17:55:50.320Z,7.10
2023-04-08T17:57:52.174Z,7.10
2023-04-08T17:59:54.083Z,7.00
2023-04-08T18:01:56.011Z,7.00
2023-04-08T18:03:57.794Z,7.00
2023-04-08T18:05:59.541Z,7.00
2023-04-08T18:08:01.249Z,7.00
2023-04-08T18:10:03.132Z,6.90
2023-04-08T18:12:04.797Z,6.90
2023-04-08T18:14:06.551Z,6.90
2023-04-08T18:16:17.176Z,6.90
2023-04-08T18:18:20.158Z,6.90
2023-04-08T18:20:22.299Z,6.80
2023-04-08T18:22:23.938Z,6.80
2023-04-08T18:24:25.766Z,6.80
2023-04-08T18:26:28.387Z,6.80
2023-04-08T18:28:30.296Z,6.70
2023-04-08T18:30:31.997Z,6.70
2023-04-08T18:32:33.902Z,6.60
2023-04-08T18:34:35.603Z,6.60
2023-04-08T18:36:37.407Z,6.60
2023-04-08T18:38:40.711Z,6.70
2023-04-08T18:40:45.532Z,6.60
2023-04-08T18:42:47.199Z,6.70
2023-04-08T18:44:48.880Z,6.60
2023-04-08T18:46:50.812Z,6.60
2023-04-08T18:48:52.454Z,6.60
2023-04-08T18:50:54.325Z,6.60
2023-04-08T18:52:55.959Z,6.60
2023-04-08T18:54:59.629Z,6.50
2023-04-08T18:57:01.350Z,6.60
2023-04-08T18:59:03.962Z,6.60
2023-04-08T19:01:09.141Z,6.60
2023-04-08T19:03:11.307Z,6.60
2023-04-08T19:05:13.032Z,6.50
2023-04-08T19:07:16.743Z,6.50
2023-04-08T19:09:18.532Z,6.50
2023-04-08T19:11:20.853Z,6.50
2023-04-08T19:13:23.795Z,6.50
2023-04-08T19:15:25.726Z,6.50
2023-04-08T19:17:27.529Z,6.50
2023-04-08T19:19:29.222Z,6.40
2023-04-08T19:21:32.782Z,6.40
2023-04-08T19:23:34.472Z,6.40
2023-04-08T19:25:36.406Z,6.40
2023-04-08T19:27:38.664Z,6.40
2023-04-08T19:29:40.423Z,6.40
2023-04-08T19:31:42.169Z,6.40
2023-04-08T19:33:44.434Z,6.40
2023-04-08T19:35:48.343Z,6.40
2023-04-08T19:37:50.102Z,6.40
2023-04-08T19:39:51.791Z,6.40
2023-04-08T19:41:53.463Z,6.40
2023-04-08T19:43:55.280Z,6.40
2023-04-08T19:45:57.793Z,6.30
2023-04-08T19:47:59.587Z,6.30
2023-04-08T19:50:01.327Z,6.30
2023-04-08T19:52:03.033Z,6.30
2023-04-08T19:54:04.947Z,6.30
2023-04-08T19:56:06.616Z,6.30
2023-04-08T19:58:08.648Z,6.30
2023-04-08T20:00:13.595Z,6.30
2023-04-08T20:02:16.318Z,6.30
2023-04-08T20:04:18.239Z,6.30
2023-04-08T20:06:20.695Z,6.30
2023-04-08T20:08:22.425Z,6.30
2023-04-08T20:10:24.137Z,6.30
2023-04-08T20:12:26.096Z,6.30
2023-04-08T20:14:27.820Z,6.30
2023-04-08T20:16:29.455Z,6.20
2023-04-08T20:18:32.213Z,6.20
2023-04-08T20:20:34.561Z,6.20
2023-04-08T20:22:36.922Z,6.20
2023-04-08T20:24:38.575Z,6.10
2023-04-08T20:26:40.794Z,6.10
2023-04-08T20:28:44.875Z,6.10
2023-04-08T20:30:46.842Z,6.00
2023-04-08T20:32:48.577Z,6.00
2023-04-08T20:34:51.280Z,6.00
2023-04-08T20:36:53.007Z,5.90
2023-04-08T20:38:55.202Z,5.90
2023-04-08T20:40:56.818Z,5.90
2023-04-08T20:42:58.483Z,5.80
2023-04-08T20:45:00.535Z,5.80
2023-04-08T20:47:02.218Z,5.80
2023-04-08T20:49:05.057Z,5.80
2023-04-08T20:51:06.751Z,5.80
2023-04-08T20:53:08.410Z,5.80
2023-04-08T20:55:10.262Z,5.80
2023-04-08T20:57:11.892Z,5.80
2023-04-08T20:59:13.501Z,5.80
2023-04-08T21:01:15.745Z,5.80
2023-04-08T21:03:17.507Z,5.80
2023-04-08T21:05:19.372Z,5.80
2023-04-08T21:07:21.004Z,5.70
2023-04-08T21:09:22.721Z,5.70
2023-04-08T21:11:24.535Z,5.70
2023-04-08T21:13:26.220Z,5.70
2023-04-08T21:15:28.415Z,5.70
2023-04-08T21:17:31.233Z,5.70
2023-04-08T21:19:32.948Z,5.70
2023-04-08T21:21:34.607Z,5.70
2023-04-08T21:23:36.289Z,5.70
2023-04-08T21:25:37.959Z,5.70
2023-04-08T21:27:41.126Z,5.60
2023-04-08T21:29:42.858Z,5.60
2023-04-08T21:31:44.628Z,5.60
2023-04-08T21:33:46.445Z,5.60
2023-04-08T21:35:48.149Z,5.60
2023-04-08T21:37:50.438Z,5.60
2023-04-08T21:39:53.668Z,5.50
2023-04-08T21:41:55.294Z,5.50
2023-04-08T21:43:57.146Z,5.50
2023-04-08T21:45:58.865Z,5.50
2023-04-08T21:48:00.685Z,5.40
2023-04-08T21:50:02.485Z,5.40
2023-04-08T21:52:04.904Z,5.40
2023-04-08T21:54:07.148Z,5.40
2023-04-08T21:56:08.799Z,5.50
2023-04-08T21:58:12.297Z,5.50
2023-04-08T22:00:14.576Z,5.50
2023-04-08T22:02:16.467Z,5.50
2023-04-08T22:04:19.559Z,5.50
2023-04-08T22:06:31.450Z,5.50
2023-04-08T22:08:34.483Z,5.50
2023-04-08T22:10:36.460Z,5.50
2023-04-08T22:12:38.114Z,5.50
2023-04-08T22:14:39.763Z,5.50
2023-04-08T22:16:41.764Z,5.50
2023-04-08T22:18:43.491Z,5.50
2023-04-08T22:20:45.190Z,5.50
2023-04-08T22:22:46.930Z,5.50
2023-04-08T22:24:48.618Z,5.60
2023-04-08T22:26:52.475Z,5.60
2023-04-08T22:28:54.370Z,5.60
2023-04-08T22:30:56.337Z,5.60
2023-04-08T22:32:58.048Z,5.60
2023-04-08T22:34:59.768Z,5.60
2023-04-08T22:37:01.411Z,5.60
2023-04-08T22:39:03.893Z,5.60
2023-04-08T22:41:05.556Z,5.60
2023-04-08T22:43:07.191Z,5.70
2023-04-08T22:45:09.115Z,5.70
2023-04-08T22:47:10.895Z,5.70
2023-04-08T22:49:12.552Z,5.70
2023-04-08T22:51:14.262Z,5.70
2023-04-08T22:53:16.234Z,5.70
2023-04-08T22:55:18.029Z,5.70
2023-04-08T22:57:19.697Z,5.70
2023-04-08T22:59:21.429Z,5.70
2023-04-08T23:01:23.159Z,5.70
2023-04-08T23:03:25.021Z,5.70
2023-04-08T23:05:26.792Z,5.70
2023-04-08T23:07:28.426Z,5.70
2023-04-08T23:09:30.061Z,5.70
2023-04-08T23:11:31.717Z,5.60
2023-04-08T23:13:33.585Z,5.60
2023-04-08T23:15:35.415Z,5.60
2023-04-08T23:17:37.135Z,5.60
2023-04-08T23:19:38.805Z,5.60
2023-04-08T23:21:40.772Z,5.60
2023-04-08T23:23:42.432Z,5.60
2023-04-08T23:25:44.085Z,5.50
2023-04-08T23:27:45.857Z,5.60
2023-04-08T23:29:47.548Z,5.60
2023-04-08T23:31:49.204Z,5.60
2023-04-08T23:33:50.848Z,5.60
2023-04-08T23:35:52.507Z,5.60
2023-04-08T23:37:54.290Z,5.60
2023-04-08T23:39:56.297Z,5.60
2023-04-08T23:41:58.170Z,5.60
2023-04-08T23:43:59.873Z,5.60
2023-04-08T23:46:01.560Z,5.50
2023-04-08T23:48:03.303Z,5.50
2023-04-08T23:50:06.366Z,5.50
2023-04-08T23:52:08.035Z,5.50
2023-04-08T23:54:09.827Z,5.50
2023-04-08T23:56:11.533Z,5.50
2023-04-08T23:58:13.289Z,5.50
